Time;durP1;ratioP1;P1;durP2;ratioP2;P2;SDS_P1;SDS_P2;PMS_P1;PMS_P2;Temp;Humidity;BMP_temperature;BMP_pressure;BME280_temperature;BME280_humidity;BME280_pressure;Samples;Min_cycle;Max_cycle;Signal;HPM_P1;HPM_P2
2022/03/29 14:34:35;;;;;;;26.87;7.60;;;;;;;;;;5079811;27;2059428;-61
2022/03/29 14:37:01;;;;;;;15.88;7.93;;;;;;;;;;5128955;28;20027;-61
2022/03/29 14:39:27;;;;;;;16.42;6.47;;;;;;;;;;5129029;28;20022;-61
2022/03/29 14:41:53;;;;;;;15.23;6.50;;;;;;;;;;5129280;28;20024;-62
2022/03/29 14:44:19;;;;;;;13.88;5.78;;;;;;;;;;5129344;28;20019;-61
2022/03/29 14:46:47;;;;;;;12.18;5.47;;;;;;;;;;5129194;28;20055;-61
2022/03/29 14:49:13;;;;;;;16.10;6.82;;;;;;;;;;5129062;28;20043;-61
2022/03/29 14:51:39;;;;;;;9.85;5.55;;;;;;;;;;5129272;28;20124;-62
2022/03/29 14:54:06;;;;;;;11.02;5.05;;;;;;;;;;5129125;28;20039;-62
2022/03/29 14:56:32;;;;;;;10.30;4.93;;;;;;;;;;5128979;28;20071;-61
2022/03/29 14:58:58;;;;;;;11.30;5.63;;;;;;;;;;5129252;28;20026;-62
2022/03/29 15:01:24;;;;;;;9.38;4.97;;;;;;;;;;5129377;28;20020;-61
2022/03/29 15:03:50;;;;;;;14.35;5.20;;;;;;;;;;5129091;28;20203;-61
2022/03/29 15:06:16;;;;;;;9.88;5.57;;;;;;;;;;5129232;28;20015;-61
2022/03/29 15:08:42;;;;;;;9.00;4.68;;;;;;;;;;5110739;28;20476;-61
2022/03/29 15:11:09;;;;;;;12.32;5.57;;;;;;;;;;5128888;28;20022;-61
2022/03/29 15:13:35;;;;;;;11.50;5.95;;;;;;;;;;5128760;28;20059;-62
2022/03/29 15:16:01;;;;;;;10.90;5.55;;;;;;;;;;5128792;28;20046;-62
2022/03/29 15:18:27;;;;;;;11.77;6.07;;;;;;;;;;5128736;28;20198;-62
2022/03/29 15:20:53;;;;;;;10.93;5.47;;;;;;;;;;5128733;28;20035;-62
2022/03/29 15:23:19;;;;;;;10.57;6.00;;;;;;;;;;5129071;28;20107;-62
2022/03/29 15:25:45;;;;;;;12.15;6.57;;;;;;;;;;5128607;28;20024;-61
2022/03/29 15:28:11;;;;;;;10.20;6.28;;;;;;;;;;5111771;28;20032;-62
2022/03/29 15:30:38;;;;;;;11.40;6.50;;;;;;;;;;5108046;28;20094;-61
2022/03/29 15:33:04;;;;;;;10.85;6.30;;;;;;;;;;5089357;28;20040;-61
2022/03/29 15:35:30;;;;;;;12.52;6.35;;;;;;;;;;5107864;28;20027;-62
2022/03/29 15:37:56;;;;;;;9.85;5.25;;;;;;;;;;5107806;28;20020;-61
2022/03/29 15:40:22;;;;;;;11.63;6.13;;;;;;;;;;5107937;28;20038;-62
2022/03/29 15:42:48;;;;;;;12.85;6.05;;;;;;;;;;5107622;28;20027;-61
2022/03/29 15:45:14;;;;;;;11.57;5.88;;;;;;;;;;5097862;28;20027;-60
2022/03/29 15:47:40;;;;;;;12.60;5.93;;;;;;;;;;5093833;28;20027;-61
2022/03/29 15:50:07;;;;;;;10.68;6.25;;;;;;;;;;5093961;28;20475;-62
2022/03/29 15:52:33;;;;;;;11.63;6.22;;;;;;;;;;5093783;28;20547;-62
2022/03/29 15:54:59;;;;;;;12.07;5.57;;;;;;;;;;5094013;28;20020;-61
2022/03/29 15:57:26;;;;;;;12.65;5.93;;;;;;;;;;5093954;28;20012;-61
2022/03/29 15:59:52;;;;;;;13.18;6.75;;;;;;;;;;5093814;28;20024;-61
2022/03/29 16:02:18;;;;;;;12.15;6.40;;;;;;;;;;5093957;28;20474;-61
2022/03/29 16:04:44;;;;;;;12.52;7.05;;;;;;;;;;5093962;28;20099;-62
2022/03/29 16:07:11;;;;;;;14.38;7.28;;;;;;;;;;5093016;28;20020;-61
2022/03/29 16:09:39;;;;;;;18.30;7.28;;;;;;;;;;5094975;28;20036;-67
2022/03/29 16:12:07;;;;;;;23.45;9.52;;;;;;;;;;5113586;28;20054;-62
2022/03/29 16:14:33;;;;;;;18.55;8.23;;;;;;;;;;5095947;28;20393;-62
2022/03/29 16:16:59;;;;;;;18.02;7.57;;;;;;;;;;5092707;28;20024;-62
2022/03/29 16:19:26;;;;;;;14.80;7.78;;;;;;;;;;5093240;28;20110;-61
2022/03/29 16:21:52;;;;;;;15.48;7.55;;;;;;;;;;5092675;28;20085;-62
2022/03/29 16:24:18;;;;;;;20.70;7.30;;;;;;;;;;5093247;28;20027;-62
2022/03/29 16:26:45;;;;;;;12.60;5.80;;;;;;;;;;5096448;28;20027;-62
2022/03/29 16:29:11;;;;;;;12.27;7.30;;;;;;;;;;5093577;28;20375;-62
2022/03/29 16:31:39;;;;;;;17.23;7.35;;;;;;;;;;5093447;28;20032;-61
2022/03/29 16:34:09;;;;;;;19.00;7.95;;;;;;;;;;5092837;28;20044;-62
2022/03/29 16:36:35;;;;;;;16.67;6.50;;;;;;;;;;5093532;28;20112;-60
2022/03/29 16:39:03;;;;;;;11.27;6.88;;;;;;;;;;5092947;28;20024;-61
2022/03/29 16:41:29;;;;;;;16.95;7.47;;;;;;;;;;5092522;28;20050;-63
2022/03/29 16:43:55;;;;;;;15.50;5.70;;;;;;;;;;5092773;28;20056;-62
2022/03/29 16:46:21;;;;;;;12.55;5.47;;;;;;;;;;5092629;28;20091;-62
2022/03/29 16:48:47;;;;;;;19.23;6.78;;;;;;;;;;5091571;28;20425;-62
2022/03/29 16:51:13;;;;;;;20.58;6.93;;;;;;;;;;5092298;28;20043;-62
2022/03/29 16:53:40;;;;;;;16.88;6.32;;;;;;;;;;5092918;28;20131;-62
2022/03/29 16:56:09;;;;;;;12.07;5.93;;;;;;;;;;5091912;28;20024;-62
2022/03/29 16:58:35;;;;;;;18.88;5.57;;;;;;;;;;5092904;28;20030;-63
2022/03/29 17:01:01;;;;;;;15.55;6.13;;;;;;;;;;5092985;28;20021;-63
2022/03/29 17:03:27;;;;;;;13.40;5.35;;;;;;;;;;5092971;28;20032;-62
2022/03/29 17:05:54;;;;;;;13.15;5.50;;;;;;;;;;5092658;28;20026;-62
2022/03/29 17:08:20;;;;;;;12.85;5.88;;;;;;;;;;5092691;28;20111;-62
2022/03/29 17:10:46;;;;;;;17.55;5.60;;;;;;;;;;5092680;28;20027;-62
2022/03/29 17:13:12;;;;;;;11.25;5.32;;;;;;;;;;5092561;28;20085;-62
2022/03/29 17:15:38;;;;;;;17.38;5.20;;;;;;;;;;5092615;28;20103;-63
2022/03/29 17:18:04;;;;;;;11.65;5.20;;;;;;;;;;5092348;28;20035;-62
2022/03/29 17:20:31;;;;;;;10.38;4.78;;;;;;;;;;5092285;28;20024;-62
2022/03/29 17:22:58;;;;;;;12.48;5.43;;;;;;;;;;5092532;28;20016;-62
2022/03/29 17:25:24;;;;;;;10.93;4.80;;;;;;;;;;5092421;28;20051;-62
2022/03/29 17:27:55;;;;;;;9.52;4.60;;;;;;;;;;5091978;28;20016;-62
2022/03/29 17:30:21;;;;;;;11.70;4.03;;;;;;;;;;5092336;28;20034;-62
2022/03/29 17:32:48;;;;;;;7.97;4.75;;;;;;;;;;5091980;28;20042;-62
2022/03/29 17:35:14;;;;;;;13.18;4.82;;;;;;;;;;5092242;28;20028;-62
2022/03/29 17:37:40;;;;;;;6.43;3.78;;;;;;;;;;5092021;28;20024;-62
2022/03/29 17:40:07;;;;;;;11.88;4.72;;;;;;;;;;5073716;28;20353;-63
2022/03/29 17:42:34;;;;;;;10.18;4.35;;;;;;;;;;5091950;28;20020;-62
2022/03/29 17:45:00;;;;;;;10.10;4.60;;;;;;;;;;5092091;28;20051;-62
2022/03/29 17:47:26;;;;;;;9.35;4.55;;;;;;;;;;5091870;28;20558;-62
2022/03/29 17:49:54;;;;;;;10.32;4.20;;;;;;;;;;5091806;28;20539;-63
2022/03/29 17:52:20;;;;;;;12.77;5.38;;;;;;;;;;5091870;28;20560;-62
2022/03/29 17:54:46;;;;;;;9.82;4.40;;;;;;;;;;5091704;28;20055;-62
2022/03/29 17:57:12;;;;;;;10.15;4.38;;;;;;;;;;5091849;28;20016;-62
2022/03/29 17:59:38;;;;;;;10.07;4.85;;;;;;;;;;5091804;28;20020;-62
2022/03/29 18:02:07;;;;;;;9.48;4.13;;;;;;;;;;5091614;28;20024;-62
2022/03/29 18:04:34;;;;;;;7.30;3.88;;;;;;;;;;5091560;28;20031;-62
2022/03/29 18:07:01;;;;;;;8.07;3.90;;;;;;;;;;5091635;28;20031;-62
2022/03/29 18:09:28;;;;;;;7.57;4.45;;;;;;;;;;5091641;28;20020;-63
2022/03/29 18:11:56;;;;;;;10.18;4.72;;;;;;;;;;5091685;28;20050;-62
2022/03/29 18:14:22;;;;;;;7.70;4.38;;;;;;;;;;5091568;28;20036;-62
2022/03/29 18:16:48;;;;;;;8.15;4.30;;;;;;;;;;5091567;28;20024;-63
2022/03/29 18:19:15;;;;;;;9.80;4.63;;;;;;;;;;5091682;28;20496;-62
2022/03/29 18:21:41;;;;;;;9.80;4.68;;;;;;;;;;5091534;28;20051;-62
2022/03/29 18:24:07;;;;;;;8.02;4.53;;;;;;;;;;5091295;28;20035;-62
2022/03/29 18:26:33;;;;;;;7.18;3.65;;;;;;;;;;5091337;28;20499;-62
2022/03/29 18:28:59;;;;;;;10.00;4.30;;;;;;;;;;5091508;28;20031;-62
2022/03/29 18:31:25;;;;;;;9.70;4.20;;;;;;;;;;5091381;28;20379;-62
2022/03/29 18:33:51;;;;;;;6.65;3.65;;;;;;;;;;5090983;28;20106;-62
2022/03/29 18:36:18;;;;;;;7.10;3.60;;;;;;;;;;5103042;28;20034;-62
2022/03/29 18:38:44;;;;;;;10.88;4.35;;;;;;;;;;5111664;28;20026;-62
2022/03/29 18:41:11;;;;;;;9.38;4.40;;;;;;;;;;5111695;28;20016;-62
2022/03/29 18:43:38;;;;;;;8.98;4.05;;;;;;;;;;5111751;28;20073;-62
2022/03/29 18:46:04;;;;;;;8.27;3.95;;;;;;;;;;5111737;28;20019;-62
2022/03/29 18:48:30;;;;;;;8.52;3.70;;;;;;;;;;5111653;28;20027;-62
2022/03/29 18:50:57;;;;;;;7.25;3.85;;;;;;;;;;5111686;28;20020;-62
2022/03/29 18:53:24;;;;;;;8.05;4.03;;;;;;;;;;5111308;28;20546;-62
2022/03/29 18:55:51;;;;;;;8.32;4.00;;;;;;;;;;5111328;28;20066;-62
2022/03/29 18:58:19;;;;;;;9.13;3.63;;;;;;;;;;5111606;28;20121;-62
2022/03/29 19:00:45;;;;;;;10.70;4.32;;;;;;;;;;5111650;28;20019;-62
2022/03/29 19:03:12;;;;;;;6.88;4.05;;;;;;;;;;5111493;28;20023;-62
2022/03/29 19:05:38;;;;;;;7.22;3.85;;;;;;;;;;5111213;28;20016;-62
2022/03/29 19:08:04;;;;;;;7.43;3.95;;;;;;;;;;5111181;28;20024;-62
2022/03/29 19:10:31;;;;;;;8.60;4.22;;;;;;;;;;5111377;28;20625;-61
2022/03/29 19:12:59;;;;;;;7.43;4.10;;;;;;;;;;5111334;28;20118;-62
2022/03/29 19:15:26;;;;;;;7.72;3.80;;;;;;;;;;5111398;28;20027;-62
2022/03/29 19:17:54;;;;;;;9.73;4.40;;;;;;;;;;5111189;28;20028;-62
2022/03/29 19:20:20;;;;;;;6.80;3.85;;;;;;;;;;5113381;28;20047;-61
2022/03/29 19:22:46;;;;;;;8.65;4.22;;;;;;;;;;5115159;28;20020;-62
2022/03/29 19:25:13;;;;;;;7.85;4.05;;;;;;;;;;5115195;28;20107;-62
2022/03/29 19:27:39;;;;;;;12.73;4.28;;;;;;;;;;5114794;28;20015;-62
2022/03/29 19:30:07;;;;;;;8.57;3.90;;;;;;;;;;5114967;28;20085;-63
2022/03/29 19:32:33;;;;;;;7.22;3.95;;;;;;;;;;5114795;28;20020;-63
2022/03/29 19:34:59;;;;;;;11.48;4.25;;;;;;;;;;5115082;28;20637;-62
2022/03/29 19:37:25;;;;;;;10.90;4.40;;;;;;;;;;5114950;28;20061;-62
2022/03/29 19:39:52;;;;;;;8.40;3.97;;;;;;;;;;5114902;28;20026;-62
2022/03/29 19:42:23;;;;;;;7.90;4.03;;;;;;;;;;5114869;28;20079;-62
2022/03/29 19:45:01;;;;;;;8.90;4.22;;;;;;;;;;5114979;28;20136;-62
2022/03/29 19:47:35;;;;;;;7.72;3.70;;;;;;;;;;5114502;28;20064;-62
2022/03/29 19:50:12;;;;;;;9.15;3.85;;;;;;;;;;5114400;28;20051;-62
2022/03/29 19:52:41;;;;;;;8.93;4.47;;;;;;;;;;5114408;28;20034;-62
2022/03/29 19:55:09;;;;;;;7.88;3.92;;;;;;;;;;5114614;28;20024;-62
2022/03/29 19:57:35;;;;;;;8.98;4.03;;;;;;;;;;5114470;28;20068;-62
2022/03/29 20:00:03;;;;;;;6.47;3.72;;;;;;;;;;5114704;28;20020;-62
2022/03/29 20:02:30;;;;;;;7.75;4.13;;;;;;;;;;5114422;28;20486;-62
2022/03/29 20:04:57;;;;;;;8.45;4.75;;;;;;;;;;5114558;28;20024;-62
2022/03/29 20:07:28;;;;;;;7.18;4.20;;;;;;;;;;5114351;28;20008;-63
2022/03/29 20:09:55;;;;;;;7.05;3.83;;;;;;;;;;5114237;28;20035;-62
2022/03/29 20:12:21;;;;;;;8.93;3.80;;;;;;;;;;5114152;28;20023;-62
2022/03/29 20:14:47;;;;;;;7.15;4.30;;;;;;;;;;5114194;28;20028;-62
2022/03/29 20:17:13;;;;;;;8.65;4.47;;;;;;;;;;5114142;28;20015;-62
2022/03/29 20:19:39;;;;;;;7.05;4.55;;;;;;;;;;5113883;28;20111;-62
2022/03/29 20:22:06;;;;;;;7.47;4.28;;;;;;;;;;5113919;28;20103;-62
2022/03/29 20:24:34;;;;;;;6.57;3.92;;;;;;;;;;5114085;28;20024;-62
2022/03/29 20:27:00;;;;;;;10.80;3.92;;;;;;;;;;5113542;28;20020;-62
2022/03/29 20:29:28;;;;;;;7.35;4.50;;;;;;;;;;5113940;28;20020;-62
2022/03/29 20:31:55;;;;;;;6.43;4.07;;;;;;;;;;5113621;28;20062;-62
2022/03/29 20:34:21;;;;;;;8.18;4.35;;;;;;;;;;5113552;28;20040;-62
2022/03/29 20:36:48;;;;;;;6.60;4.10;;;;;;;;;;5112113;28;20024;-62
2022/03/29 20:39:14;;;;;;;7.32;3.83;;;;;;;;;;5113584;28;20070;-62
2022/03/29 20:41:41;;;;;;;8.43;4.40;;;;;;;;;;5113693;28;20462;-62
2022/03/29 20:44:07;;;;;;;8.18;4.65;;;;;;;;;;5113578;28;20024;-62
2022/03/29 20:46:33;;;;;;;8.65;4.97;;;;;;;;;;5113588;28;20470;-63
2022/03/29 20:49:00;;;;;;;9.02;4.20;;;;;;;;;;5113566;28;20032;-62
2022/03/29 20:51:30;;;;;;;9.93;4.70;;;;;;;;;;5113435;28;20062;-62
2022/03/29 20:53:56;;;;;;;6.75;4.18;;;;;;;;;;5113213;28;20034;-62
2022/03/29 20:56:22;;;;;;;8.30;4.70;;;;;;;;;;5113347;28;20031;-62
2022/03/29 20:58:50;;;;;;;8.55;4.90;;;;;;;;;;5113451;28;20020;-62
2022/03/29 21:01:16;;;;;;;7.95;4.10;;;;;;;;;;5113418;28;20015;-62
2022/03/29 21:03:42;;;;;;;9.50;5.15;;;;;;;;;;5113203;28;20019;-62
2022/03/29 21:06:09;;;;;;;7.97;4.47;;;;;;;;;;5113295;28;20030;-62
2022/03/29 21:08:35;;;;;;;7.38;4.80;;;;;;;;;;5113064;28;20027;-62
2022/03/29 21:11:02;;;;;;;8.27;4.45;;;;;;;;;;5113256;28;20020;-62
2022/03/29 21:13:28;;;;;;;9.32;4.85;;;;;;;;;;5113051;28;20042;-62
2022/03/29 21:15:54;;;;;;;10.32;4.55;;;;;;;;;;5113005;28;20016;-62
2022/03/29 21:18:22;;;;;;;8.05;4.75;;;;;;;;;;5112803;28;20106;-62
2022/03/29 21:20:48;;;;;;;8.43;4.97;;;;;;;;;;5112832;28;20023;-62
2022/03/29 21:23:20;;;;;;;7.63;4.47;;;;;;;;;;5112704;28;20077;-62
2022/03/29 21:25:47;;;;;;;9.00;4.57;;;;;;;;;;5112721;28;20061;-61
2022/03/29 21:28:14;;;;;;;10.60;5.05;;;;;;;;;;5112299;28;20076;-62
2022/03/29 21:30:41;;;;;;;12.10;4.68;;;;;;;;;;5112607;28;20019;-62
2022/03/29 21:33:07;;;;;;;8.85;5.03;;;;;;;;;;5112348;28;20076;-62
2022/03/29 21:35:33;;;;;;;7.30;4.00;;;;;;;;;;5112342;28;20062;-62
2022/03/29 21:37:59;;;;;;;7.57;4.47;;;;;;;;;;5112769;28;20398;-61
2022/03/29 21:40:25;;;;;;;10.63;4.82;;;;;;;;;;5112469;28;20024;-62
2022/03/29 21:42:52;;;;;;;13.60;4.57;;;;;;;;;;5111922;28;20011;-62
2022/03/29 21:45:18;;;;;;;7.65;4.32;;;;;;;;;;5112303;28;20016;-62
2022/03/29 21:47:44;;;;;;;8.23;4.68;;;;;;;;;;5112565;28;20046;-62
2022/03/29 21:50:11;;;;;;;8.30;4.60;;;;;;;;;;5112488;28;20023;-62
2022/03/29 21:52:37;;;;;;;7.15;5.00;;;;;;;;;;5112360;28;20030;-62
2022/03/29 21:55:04;;;;;;;6.57;4.32;;;;;;;;;;5112443;28;20053;-62
2022/03/29 21:57:30;;;;;;;8.65;4.78;;;;;;;;;;5111983;28;20107;-63
2022/03/29 21:59:56;;;;;;;7.93;4.60;;;;;;;;;;5111914;28;20045;-62
2022/03/29 22:02:23;;;;;;;8.98;5.18;;;;;;;;;;5112115;28;20102;-62
2022/03/29 22:04:49;;;;;;;7.65;4.80;;;;;;;;;;5112332;28;20456;-62
2022/03/29 22:07:16;;;;;;;8.13;4.88;;;;;;;;;;5112231;28;20024;-62
2022/03/29 22:09:42;;;;;;;10.02;5.57;;;;;;;;;;5112089;28;20016;-62
2022/03/29 22:12:08;;;;;;;9.60;5.18;;;;;;;;;;5112180;28;20019;-62
2022/03/29 22:14:34;;;;;;;7.75;4.45;;;;;;;;;;5112019;28;20168;-63
2022/03/29 22:17:00;;;;;;;8.50;5.45;;;;;;;;;;5111956;28;20028;-62
2022/03/29 22:19:26;;;;;;;10.40;4.72;;;;;;;;;;5111817;28;20031;-62
2022/03/29 22:21:52;;;;;;;8.48;5.15;;;;;;;;;;5111812;28;20027;-63
2022/03/29 22:24:18;;;;;;;8.15;4.75;;;;;;;;;;5111658;28;20020;-63
2022/03/29 22:26:44;;;;;;;7.18;4.35;;;;;;;;;;5111495;28;20008;-62
2022/03/29 22:29:10;;;;;;;9.07;4.47;;;;;;;;;;5111866;28;20034;-62
2022/03/29 22:31:36;;;;;;;8.68;4.70;;;;;;;;;;5111889;28;20506;-62
2022/03/29 22:34:04;;;;;;;8.48;4.70;;;;;;;;;;5111526;28;20059;-62
2022/03/29 22:36:30;;;;;;;8.15;4.72;;;;;;;;;;5110250;28;20024;-62
2022/03/29 22:38:56;;;;;;;9.02;4.88;;;;;;;;;;5111733;28;20019;-62
2022/03/29 22:41:22;;;;;;;8.13;5.32;;;;;;;;;;5111772;28;20024;-62
2022/03/29 22:43:48;;;;;;;8.27;5.40;;;;;;;;;;5111713;28;20102;-62
2022/03/29 22:46:14;;;;;;;7.82;4.65;;;;;;;;;;5111776;28;20081;-62
2022/03/29 22:48:40;;;;;;;6.82;4.47;;;;;;;;;;5111596;28;20028;-62
2022/03/29 22:51:06;;;;;;;9.23;5.25;;;;;;;;;;5111582;28;20486;-62
2022/03/29 22:53:33;;;;;;;7.90;4.40;;;;;;;;;;5111019;28;20571;-63
2022/03/29 22:58:44;;;;;;;8.93;4.97;;;;;;;;;;5108620;28;20065;-62
2022/03/29 23:01:10;;;;;;;8.90;5.45;;;;;;;;;;5114067;28;20047;-62
2022/03/29 23:03:36;;;;;;;7.85;4.65;;;;;;;;;;5114207;28;20054;-61
2022/03/29 23:06:02;;;;;;;16.23;4.72;;;;;;;;;;5113901;28;20027;-63
2022/03/29 23:08:28;;;;;;;10.00;4.60;;;;;;;;;;5097163;28;20527;-63
2022/03/29 23:10:54;;;;;;;9.63;4.65;;;;;;;;;;5115455;28;20058;-63
2022/03/29 23:13:20;;;;;;;13.75;5.55;;;;;;;;;;5115408;28;20036;-62
2022/03/29 23:15:46;;;;;;;8.20;4.90;;;;;;;;;;5115589;28;20024;-63
2022/03/29 23:18:12;;;;;;;7.70;4.80;;;;;;;;;;5115315;28;20030;-63
2022/03/29 23:20:39;;;;;;;8.63;4.82;;;;;;;;;;5115400;28;20023;-63
2022/03/29 23:23:05;;;;;;;9.65;4.90;;;;;;;;;;5111652;28;20051;-62
2022/03/29 23:25:31;;;;;;;10.57;5.00;;;;;;;;;;5094491;28;20016;-62
2022/03/29 23:27:57;;;;;;;15.55;5.70;;;;;;;;;;5108456;28;20042;-63
2022/03/29 23:30:23;;;;;;;7.55;4.65;;;;;;;;;;5114912;28;20364;-62
2022/03/29 23:32:49;;;;;;;12.10;4.80;;;;;;;;;;5114766;28;20050;-63
2022/03/29 23:35:15;;;;;;;13.68;4.72;;;;;;;;;;5114907;28;20027;-62
2022/03/29 23:37:42;;;;;;;9.00;5.32;;;;;;;;;;5114758;28;20102;-62
2022/03/29 23:40:08;;;;;;;11.75;5.93;;;;;;;;;;5114285;28;20027;-62
2022/03/29 23:42:34;;;;;;;8.93;5.35;;;;;;;;;;5114156;28;20024;-62
2022/03/29 23:45:00;;;;;;;9.30;5.07;;;;;;;;;;5099794;28;20047;-63
2022/03/29 23:47:26;;;;;;;11.90;5.22;;;;;;;;;;5107191;28;20034;-62
2022/03/29 23:49:52;;;;;;;10.45;5.18;;;;;;;;;;5114789;28;20042;-62
2022/03/29 23:52:18;;;;;;;11.80;5.55;;;;;;;;;;5095193;28;20028;-63
2022/03/29 23:54:44;;;;;;;23.83;6.05;;;;;;;;;;5094331;28;20075;-63
2022/03/29 23:57:10;;;;;;;12.50;5.18;;;;;;;;;;5093964;28;20050;-62
2022/03/29 23:59:36;;;;;;;9.90;5.10;;;;;;;;;;5094190;28;20024;-63
